HAAB/ADD METAR and TAF weather

Enter ICAO airport designator
Station Type Date Time Source
HAAB METAR 2020/09/20 06:00 UTC NOAA

HAAB 200600Z 29006KT 9000 BR BKN025 SCT070 15/13 Q1027


Station Type Date Time Source
HAAB Decoded METAR 2020/09/20 06:00 UTC NOAA

Addis Ababa, Ethiopia (HAAB) 08-59N 038-48E 2324M
Sep 20, 2020 - 02:00 AM EDT / 2020.09.20 0600 UTC
Wind: from the WNW (290 degrees) at 7 MPH (6 KT):0
Visibility: 5 mile(s):0
Sky conditions: mostly cloudy
Weather: mist
Temperature: 59 F (15 C)
Dew Point: 55 F (13 C)
Relative Humidity: 87%
Pressure (altimeter): 30.33 in. Hg (1027 hPa)
ob: HAAB 200600Z 29006KT 9000 BR BKN025 SCT070 15/13 Q1027
cycle: 6

Station Type Date Time Source
HAAB TAF 2020/09/20 06:30 UTC NOAA

TAF TAF HAAB 200330Z 2006/2112 24005KT 9999 BKN020 BKN090
BECMG 2011/2017 34004KT 8000 RA BKN018 BKN080

Example: see airport list